createdAt,value
2022-11-18T00:01:20.261Z,9.15
2022-11-18T00:03:49.261Z,7.97
2022-11-18T00:06:20.598Z,7.72
2022-11-18T00:08:50.428Z,8.52
2022-11-18T00:11:36.254Z,8.80
2022-11-18T00:14:20.259Z,8.40
2022-11-18T00:16:50.358Z,8.25
2022-11-18T00:19:19.585Z,6.78
2022-11-18T00:21:47.761Z,8.35
2022-11-18T00:24:15.891Z,7.30
2022-11-18T00:26:47.094Z,6.97
2022-11-18T00:29:15.714Z,6.75
2022-11-18T00:31:44.710Z,6.03
2022-11-18T00:34:14.248Z,6.30
2022-11-18T00:36:44.069Z,6.50
2022-11-18T00:39:16.831Z,5.68
2022-11-18T00:42:06.332Z,5.72
2022-11-18T00:44:34.866Z,5.57
2022-11-18T00:47:03.236Z,5.30
2022-11-18T00:49:38.703Z,5.10
2022-11-18T00:52:07.484Z,4.95
2022-11-18T00:54:44.237Z,5.47
2022-11-18T00:57:13.915Z,5.22
2022-11-18T00:59:42.037Z,5.43
2022-11-18T01:02:10.410Z,5.30
2022-11-18T01:04:41.933Z,5.60
2022-11-18T01:07:12.770Z,5.10
2022-11-18T01:09:43.903Z,5.10
2022-11-18T01:12:33.414Z,4.60
2022-11-18T01:15:01.499Z,4.75
2022-11-18T01:17:34.070Z,4.57
2022-11-18T01:20:05.653Z,4.35
2022-11-18T01:22:33.864Z,5.07
2022-11-18T01:25:05.084Z,4.57
2022-11-18T01:27:34.596Z,4.75
2022-11-18T01:30:04.629Z,4.65
2022-11-18T01:32:32.766Z,4.35
2022-11-18T01:35:01.087Z,4.13
2022-11-18T01:37:29.249Z,4.93
2022-11-18T01:39:57.462Z,4.10
2022-11-18T01:42:28.740Z,4.55
2022-11-18T01:45:22.953Z,3.83
2022-11-18T01:47:57.021Z,3.95
2022-11-18T01:50:26.330Z,3.30
2022-11-18T01:53:03.181Z,3.50
2022-11-18T01:55:38.112Z,3.15
2022-11-18T01:58:10.520Z,2.97
2022-11-18T02:00:41.337Z,3.00
2022-11-18T02:03:19.943Z,3.10
2022-11-18T02:05:53.630Z,3.65
2022-11-18T02:08:24.339Z,2.85
2022-11-18T02:10:53.848Z,3.45
2022-11-18T02:13:24.670Z,3.75
2022-11-18T02:16:16.020Z,2.97
2022-11-18T02:18:53.967Z,3.15
2022-11-18T02:21:38.600Z,3.67
2022-11-18T02:24:38.828Z,4.30
2022-11-18T02:30:03.453Z,3.83
2022-11-18T02:32:37.622Z,4.15
2022-11-18T02:35:15.055Z,4.18
2022-11-18T02:37:50.295Z,4.00
2022-11-18T02:40:23.403Z,3.20
2022-11-18T02:42:55.864Z,4.57
2022-11-18T02:45:42.229Z,4.07
2022-11-18T02:48:14.498Z,4.82
2022-11-18T02:50:44.836Z,4.70
2022-11-18T02:53:16.395Z,4.47
2022-11-18T02:55:48.423Z,4.20
2022-11-18T02:58:23.383Z,3.88
2022-11-18T03:01:01.767Z,3.83
2022-11-18T03:03:32.522Z,3.25
2022-11-18T03:06:09.711Z,3.28
2022-11-18T03:08:42.677Z,3.53
2022-11-18T03:11:20.705Z,3.00
2022-11-18T03:14:08.839Z,3.60
2022-11-18T03:16:42.109Z,3.13
2022-11-18T03:19:20.636Z,3.13
2022-11-18T03:21:59.345Z,3.05
2022-11-18T03:24:30.792Z,3.03
2022-11-18T03:27:08.924Z,2.05
2022-11-18T03:29:47.555Z,2.90
2022-11-18T03:32:21.851Z,2.22
2022-11-18T03:34:53.600Z,2.45
2022-11-18T03:37:34.117Z,2.00
2022-11-18T03:40:18.360Z,1.60
2022-11-18T03:42:52.171Z,1.63
2022-11-18T03:45:28.949Z,1.60
2022-11-18T03:48:04.382Z,1.70
2022-11-18T03:50:39.293Z,1.10
2022-11-18T03:53:10.882Z,0.95
2022-11-18T03:55:52.626Z,0.70
2022-11-18T03:58:28.887Z,0.80
2022-11-18T04:01:03.137Z,1.05
2022-11-18T04:03:32.857Z,0.80
2022-11-18T04:06:06.289Z,0.82
2022-11-18T04:08:45.612Z,0.60
2022-11-18T04:11:38.194Z,0.83
2022-11-18T04:14:09.987Z,0.50
2022-11-18T04:16:41.491Z,0.63
2022-11-18T04:19:12.212Z,0.50
2022-11-18T04:21:40.438Z,0.40
2022-11-18T04:24:10.625Z,0.80
2022-11-18T04:29:09.952Z,0.57
2022-11-18T04:31:39.888Z,0.20
2022-11-18T04:34:08.019Z,0.43
2022-11-18T04:36:37.624Z,0.40
2022-11-18T04:39:07.567Z,0.93
2022-11-18T04:41:59.364Z,0.68
2022-11-18T04:44:31.492Z,0.38
2022-11-18T04:47:01.270Z,0.20
2022-11-18T04:49:31.009Z,0.45
2022-11-18T04:52:01.073Z,0.65
2022-11-18T04:54:29.726Z,0.50
2022-11-18T04:57:00.257Z,0.35
2022-11-18T04:59:30.785Z,0.43
2022-11-18T05:02:02.478Z,0.68
2022-11-18T05:04:32.649Z,0.40
2022-11-18T05:09:36.841Z,0.47
2022-11-18T05:12:24.505Z,1.05
2022-11-18T05:15:00.178Z,0.30
2022-11-18T05:17:30.776Z,0.52
2022-11-18T05:19:58.776Z,0.70
2022-11-18T05:22:37.555Z,1.08
2022-11-18T05:25:06.309Z,0.20
2022-11-18T05:27:37.017Z,0.60
2022-11-18T05:30:06.207Z,0.88
2022-11-18T05:32:39.669Z,0.80
2022-11-18T05:35:08.430Z,0.50
2022-11-18T05:37:40.293Z,0.75
2022-11-18T05:40:10.070Z,0.70
2022-11-18T05:43:00.010Z,0.50
2022-11-18T05:45:28.247Z,0.88
2022-11-18T05:48:05.782Z,0.65
2022-11-18T05:50:35.843Z,0.98
2022-11-18T05:53:06.587Z,1.23
2022-11-18T05:55:42.649Z,1.10
2022-11-18T05:58:10.919Z,0.75
2022-11-18T06:00:43.337Z,1.13
2022-11-18T06:03:18.839Z,1.55
2022-11-18T06:05:47.226Z,0.95
2022-11-18T06:08:19.906Z,1.40
2022-11-18T06:10:50.600Z,1.13
2022-11-18T06:13:22.801Z,0.90
2022-11-18T06:15:51.140Z,0.80
2022-11-18T06:18:23.554Z,1.60
2022-11-18T06:20:54.346Z,0.70
2022-11-18T06:23:26.078Z,0.77
2022-11-18T06:25:55.324Z,1.00
2022-11-18T06:28:25.856Z,1.10
2022-11-18T06:30:54.575Z,1.15
2022-11-18T06:33:23.008Z,1.00
2022-11-18T06:35:53.746Z,1.27
2022-11-18T06:38:26.416Z,1.50
2022-11-18T06:40:54.734Z,0.82
2022-11-18T06:43:44.026Z,0.60
2022-11-18T06:46:31.744Z,1.30
2022-11-18T06:49:04.328Z,1.33
2022-11-18T06:51:34.770Z,0.68
2022-11-18T06:54:43.541Z,0.90
2022-11-18T06:57:09.911Z,0.90
2022-11-18T06:59:37.990Z,1.48
2022-11-18T07:02:06.014Z,1.15
2022-11-18T07:04:34.905Z,0.80
2022-11-18T07:07:08.246Z,0.77
2022-11-18T07:09:38.651Z,1.15
2022-11-18T07:12:08.756Z,1.95
2022-11-18T07:14:37.123Z,1.13
2022-11-18T07:17:05.244Z,1.10
2022-11-18T07:19:40.312Z,1.25
2022-11-18T07:22:08.988Z,1.27
2022-11-18T07:24:39.154Z,1.63
2022-11-18T07:29:35.091Z,1.15
2022-11-18T07:32:04.946Z,1.60
2022-11-18T07:34:35.574Z,1.80
2022-11-18T07:37:03.918Z,1.23
2022-11-18T07:39:32.309Z,0.88
2022-11-18T07:42:07.787Z,1.05
2022-11-18T07:44:36.071Z,1.17
2022-11-18T07:47:04.143Z,0.63
2022-11-18T07:49:32.218Z,1.05
2022-11-18T07:52:00.439Z,0.77
2022-11-18T07:54:28.753Z,0.73
2022-11-18T07:56:56.993Z,1.20
2022-11-18T07:59:29.901Z,1.92
2022-11-18T08:02:00.600Z,1.70
2022-11-18T08:04:33.651Z,1.13
2022-11-18T08:07:05.108Z,0.47
2022-11-18T08:09:34.579Z,0.80
2022-11-18T08:12:07.131Z,0.70
2022-11-18T08:14:42.064Z,1.58
2022-11-18T08:17:11.918Z,1.17
2022-11-18T08:19:54.393Z,1.17
2022-11-18T08:22:31.986Z,0.77
2022-11-18T08:25:04.604Z,0.50
2022-11-18T08:27:44.511Z,1.73
2022-11-18T08:30:17.627Z,1.30
2022-11-18T08:32:51.149Z,1.00
2022-11-18T08:35:25.713Z,0.85
2022-11-18T08:37:53.942Z,1.00
2022-11-18T08:40:38.768Z,1.35
2022-11-18T08:43:16.707Z,0.70
2022-11-18T08:46:00.583Z,0.82
2022-11-18T08:48:54.051Z,0.63
2022-11-18T08:51:23.441Z,1.05
2022-11-18T08:54:00.174Z,1.30
2022-11-18T08:56:28.594Z,0.80
2022-11-18T08:59:05.326Z,0.85
2022-11-18T09:01:37.640Z,0.60
2022-11-18T09:04:09.503Z,0.88
2022-11-18T09:06:40.452Z,0.98
2022-11-18T09:09:09.849Z,0.50
2022-11-18T09:11:49.779Z,1.13
2022-11-18T09:15:12.261Z,0.85
2022-11-18T09:17:18.318Z,1.35
2022-11-18T09:19:55.186Z,1.45
2022-11-18T09:22:30.321Z,1.02
2022-11-18T09:25:03.773Z,0.90
2022-11-18T09:27:31.942Z,1.02
2022-11-18T09:30:09.242Z,2.13
2022-11-18T09:32:42.016Z,0.93
2022-11-18T09:35:10.581Z,1.48
2022-11-18T09:37:39.052Z,0.90
2022-11-18T09:40:08.124Z,0.93
2022-11-18T09:42:56.418Z,1.15
2022-11-18T09:45:29.786Z,0.57
2022-11-18T09:48:01.880Z,0.90
2022-11-18T09:50:49.685Z,0.63
2022-11-18T09:53:22.029Z,1.13
2022-11-18T09:55:54.963Z,1.20
2022-11-18T09:58:29.474Z,0.60
2022-11-18T10:01:27.812Z,0.75
2022-11-18T10:04:12.792Z,0.70
2022-11-18T10:06:49.652Z,0.75
2022-11-18T10:09:43.715Z,1.30
2022-11-18T10:12:27.738Z,1.35
2022-11-18T10:15:21.025Z,1.05
2022-11-18T10:18:00.576Z,0.90
2022-11-18T10:20:41.777Z,1.20
2022-11-18T10:23:18.208Z,0.95
2022-11-18T10:25:46.433Z,0.70
2022-11-18T10:28:23.896Z,0.63
2022-11-18T10:30:53.354Z,0.80
2022-11-18T10:33:29.924Z,0.73
2022-11-18T10:36:32.511Z,1.27
2022-11-18T10:39:11.582Z,0.63
2022-11-18T10:41:51.260Z,1.00
2022-11-18T10:44:48.628Z,1.23
2022-11-18T10:47:37.700Z,1.08
2022-11-18T10:50:35.506Z,0.50
2022-11-18T10:53:34.453Z,0.70
2022-11-18T10:56:12.013Z,0.80
2022-11-18T10:59:18.336Z,0.85
2022-11-18T11:02:01.964Z,0.98
2022-11-18T11:04:34.114Z,1.05
2022-11-18T11:07:27.447Z,1.02
2022-11-18T11:10:16.420Z,1.00
2022-11-18T11:12:56.048Z,0.80
2022-11-18T11:15:36.648Z,0.60
2022-11-18T11:18:29.086Z,0.77
2022-11-18T11:21:02.186Z,1.23
2022-11-18T11:23:33.455Z,2.10
2022-11-18T11:29:04.584Z,1.45
2022-11-18T11:31:44.917Z,1.38
2022-11-18T11:34:23.350Z,1.35
2022-11-18T11:37:09.857Z,0.70
2022-11-18T11:40:00.828Z,1.17
2022-11-18T11:42:55.707Z,1.02
2022-11-18T11:45:35.964Z,0.77
2022-11-18T11:48:23.151Z,0.93
2022-11-18T11:51:04.780Z,0.95
2022-11-18T11:53:58.135Z,0.70
2022-11-18T11:56:33.973Z,1.25
2022-11-18T11:59:30.554Z,0.88
2022-11-18T12:02:32.724Z,0.93
2022-11-18T12:05:13.092Z,0.75
2022-11-18T12:07:54.499Z,1.23
2022-11-18T12:10:46.754Z,0.85
2022-11-18T12:13:38.171Z,0.73
2022-11-18T12:17:03.730Z,1.00
2022-11-18T12:26:39.234Z,0.75
2022-11-18T12:29:26.276Z,0.85
2022-11-18T12:32:01.819Z,1.05
2022-11-18T12:34:37.890Z,0.50
2022-11-18T12:37:44.017Z,0.77
2022-11-18T12:40:32.520Z,1.02
2022-11-18T12:43:18.387Z,0.82
2022-11-18T12:45:53.611Z,1.00
2022-11-18T12:48:44.312Z,0.77
2022-11-18T12:51:48.839Z,0.82
2022-11-18T12:54:31.281Z,0.80
2022-11-18T12:57:02.229Z,0.80
2022-11-18T12:59:33.075Z,0.57
2022-11-18T13:02:24.258Z,0.55
2022-11-18T13:05:12.778Z,0.55
2022-11-18T13:08:03.755Z,1.23
2022-11-18T13:10:36.074Z,0.50
2022-11-18T13:13:05.236Z,1.00
2022-11-18T13:15:52.020Z,0.77
2022-11-18T13:18:22.170Z,0.90
2022-11-18T13:23:59.324Z,0.88
2022-11-18T13:26:41.324Z,0.63
2022-11-18T13:29:22.592Z,1.05
2022-11-18T13:32:24.414Z,1.20
2022-11-18T13:34:57.732Z,1.15
2022-11-18T13:37:30.309Z,0.73
2022-11-18T13:40:26.048Z,0.80
2022-11-18T13:48:17.455Z,0.80
2022-11-18T13:50:53.091Z,1.40
2022-11-18T13:53:32.977Z,0.73
2022-11-18T13:56:05.661Z,0.65
2022-11-18T13:59:10.470Z,0.88
2022-11-18T14:01:33.159Z,0.80
2022-11-18T14:04:07.538Z,0.50
2022-11-18T14:06:46.679Z,0.65
2022-11-18T14:09:27.340Z,0.70
2022-11-18T14:12:05.652Z,0.63
2022-11-18T14:14:36.302Z,0.82
2022-11-18T14:17:23.185Z,1.35
2022-11-18T14:19:58.445Z,0.60
2022-11-18T14:22:32.378Z,1.10
2022-11-18T14:25:06.153Z,0.63
2022-11-18T14:27:51.354Z,0.60
2022-11-18T14:30:32.857Z,0.93
2022-11-18T14:33:15.928Z,1.38
2022-11-18T14:35:45.851Z,0.70
2022-11-18T14:41:10.516Z,1.02
2022-11-18T14:43:38.876Z,1.02
2022-11-18T14:46:12.252Z,0.65
2022-11-18T14:48:40.936Z,0.63
2022-11-18T14:51:13.923Z,1.02
2022-11-18T14:53:41.999Z,0.75
2022-11-18T14:56:16.625Z,1.10
2022-11-18T14:58:44.698Z,1.20
2022-11-18T15:01:16.228Z,0.85
2022-11-18T15:03:44.714Z,1.17
2022-11-18T15:06:15.064Z,1.08
2022-11-18T15:08:44.410Z,1.20
2022-11-18T15:11:14.881Z,0.55
2022-11-18T15:13:43.828Z,1.10
2022-11-18T15:16:15.794Z,0.65
2022-11-18T15:18:46.738Z,0.50
2022-11-18T15:21:15.677Z,1.30
2022-11-18T15:23:44.066Z,0.70
2022-11-18T15:26:22.044Z,0.80
2022-11-18T15:28:50.818Z,0.70
2022-11-18T15:31:19.215Z,0.75
2022-11-18T15:33:48.620Z,1.05
2022-11-18T15:36:19.237Z,0.70
2022-11-18T15:38:48.158Z,0.73
2022-11-18T15:41:20.601Z,0.98
2022-11-18T15:43:51.384Z,1.17
2022-11-18T15:46:21.811Z,0.98
2022-11-18T15:48:52.601Z,1.10
2022-11-18T15:51:21.232Z,0.98
2022-11-18T15:53:49.338Z,1.20
2022-11-18T15:56:34.284Z,0.93
2022-11-18T15:59:13.916Z,1.02
2022-11-18T16:01:44.675Z,1.27
2022-11-18T16:04:14.463Z,0.55
2022-11-18T16:06:46.981Z,0.82
2022-11-18T16:09:47.496Z,0.70
2022-11-18T16:12:44.368Z,1.70
2022-11-18T16:15:35.938Z,1.13
2022-11-18T16:18:08.749Z,0.98
2022-11-18T16:20:37.507Z,1.10
2022-11-18T16:23:06.299Z,0.70
2022-11-18T16:25:34.482Z,1.30
2022-11-18T16:28:07.711Z,0.93
2022-11-18T16:30:53.948Z,1.20
2022-11-18T16:33:22.606Z,1.23
2022-11-18T16:35:51.855Z,2.45
2022-11-18T16:38:20.117Z,1.40
2022-11-18T16:40:48.149Z,2.45
2022-11-18T16:43:17.553Z,2.00
2022-11-18T16:45:52.809Z,1.98
2022-11-18T16:48:21.360Z,1.48
2022-11-18T16:51:01.406Z,2.03
2022-11-18T16:53:29.384Z,1.17
2022-11-18T16:56:04.368Z,1.30
2022-11-18T16:58:44.078Z,1.50
2022-11-18T17:01:24.645Z,1.55
2022-11-18T17:03:56.794Z,1.67
2022-11-18T17:06:26.306Z,1.33
2022-11-18T17:08:54.814Z,1.08
2022-11-18T17:11:23.333Z,1.13
2022-11-18T17:13:58.250Z,1.05
2022-11-18T17:16:27.520Z,1.48
2022-11-18T17:18:57.041Z,1.02
2022-11-18T17:21:25.965Z,1.45
2022-11-18T17:23:54.206Z,1.58
2022-11-18T17:26:24.068Z,2.08
2022-11-18T17:28:53.673Z,3.40
2022-11-18T17:31:23.981Z,1.90
2022-11-18T17:36:23.659Z,2.10
2022-11-18T17:41:39.475Z,2.13
2022-11-18T17:44:11.748Z,3.15
2022-11-18T17:46:40.264Z,3.63
2022-11-18T17:49:13.169Z,2.15
2022-11-18T17:51:41.952Z,1.88
2022-11-18T17:54:10.269Z,3.92
2022-11-18T17:56:38.580Z,3.03
2022-11-18T17:59:06.660Z,2.10
2022-11-18T18:01:37.599Z,1.83
2022-11-18T18:04:06.029Z,2.45
2022-11-18T18:06:36.203Z,2.40
2022-11-18T18:11:33.899Z,2.83
2022-11-18T18:14:12.915Z,2.40
2022-11-18T18:16:46.537Z,2.90
2022-11-18T18:19:16.861Z,1.73
2022-11-18T18:24:14.938Z,2.03
2022-11-18T18:26:43.182Z,2.33
2022-11-18T18:29:12.977Z,2.75
2022-11-18T18:31:42.634Z,2.97
2022-11-18T18:34:10.821Z,2.53
2022-11-18T18:36:39.391Z,2.35
2022-11-18T18:39:07.549Z,3.70
2022-11-18T18:41:38.260Z,2.63
2022-11-18T18:44:06.620Z,2.30
2022-11-18T18:46:33.664Z,3.33
2022-11-18T18:49:05.988Z,2.72
2022-11-18T18:51:37.268Z,2.50
2022-11-18T18:54:06.103Z,2.10
2022-11-18T18:56:34.906Z,2.95
2022-11-18T18:59:03.099Z,2.70
2022-11-18T19:01:33.693Z,2.72
2022-11-18T19:04:06.281Z,3.40
2022-11-18T19:09:25.023Z,3.33
2022-11-18T19:12:11.482Z,3.13
2022-11-18T19:14:39.587Z,3.17
2022-11-18T19:17:11.113Z,3.35
2022-11-18T19:20:00.617Z,4.07
2022-11-18T19:22:31.517Z,4.10
2022-11-18T19:25:00.064Z,2.80
2022-11-18T19:27:29.956Z,3.00
2022-11-18T19:29:58.509Z,3.40
2022-11-18T19:32:26.759Z,3.00
2022-11-18T19:34:56.245Z,2.70
2022-11-18T19:37:24.385Z,2.95
2022-11-18T19:39:52.605Z,2.58
2022-11-18T19:42:20.732Z,3.42
2022-11-18T19:44:48.803Z,3.08
2022-11-18T19:47:16.954Z,2.80
2022-11-18T19:49:45.087Z,2.33
2022-11-18T19:52:14.550Z,2.85
2022-11-18T19:54:42.782Z,3.80
2022-11-18T19:57:10.912Z,2.70
2022-11-18T19:59:39.667Z,2.58
2022-11-18T20:02:08.493Z,3.13
2022-11-18T20:04:37.197Z,3.20
2022-11-18T20:07:05.630Z,3.47
2022-11-18T20:09:35.205Z,3.60
2022-11-18T20:12:03.597Z,3.03
2022-11-18T20:14:31.603Z,3.17
2022-11-18T20:16:59.621Z,3.65
2022-11-18T20:19:27.656Z,2.70
2022-11-18T20:21:55.745Z,4.05
2022-11-18T20:24:23.810Z,3.10
2022-11-18T20:26:53.447Z,3.53
2022-11-18T20:29:22.183Z,5.03
2022-11-18T20:31:50.321Z,5.70
2022-11-18T20:34:19.536Z,6.72
2022-11-18T20:36:52.023Z,4.63
2022-11-18T20:39:21.131Z,3.85
2022-11-18T20:42:06.072Z,5.35
2022-11-18T20:44:35.669Z,3.00
2022-11-18T20:47:03.706Z,5.28
2022-11-18T20:49:31.788Z,4.93
2022-11-18T20:51:59.900Z,4.05
2022-11-18T20:54:27.917Z,5.10
2022-11-18T20:56:55.993Z,5.13
2022-11-18T20:59:24.723Z,4.25
2022-11-18T21:01:54.482Z,4.07
2022-11-18T21:04:22.567Z,4.50
2022-11-18T21:06:54.665Z,4.90
2022-11-18T21:09:22.800Z,5.20
2022-11-18T21:11:50.895Z,4.80
2022-11-18T21:14:23.454Z,4.40
2022-11-18T21:16:55.626Z,3.55
2022-11-18T21:19:24.189Z,2.83
2022-11-18T21:21:52.797Z,3.00
2022-11-18T21:24:23.089Z,2.90
2022-11-18T21:26:54.759Z,2.42
2022-11-18T21:29:24.459Z,3.05
2022-11-18T21:31:54.717Z,3.10
2022-11-18T21:34:22.834Z,3.05
2022-11-18T21:36:54.662Z,2.88
2022-11-18T21:39:24.220Z,3.25
2022-11-18T21:41:56.235Z,3.45
2022-11-18T21:44:25.934Z,3.05
2022-11-18T21:46:55.792Z,2.95
2022-11-18T21:49:23.948Z,3.63
2022-11-18T21:51:52.184Z,3.72
2022-11-18T21:54:20.530Z,3.92
2022-11-18T21:56:49.392Z,3.08
2022-11-18T21:59:17.707Z,3.17
2022-11-18T22:01:46.015Z,3.83
2022-11-18T22:04:35.828Z,3.63
2022-11-18T22:07:05.349Z,3.47
2022-11-18T22:09:36.707Z,4.07
2022-11-18T22:12:06.947Z,5.53
2022-11-18T22:14:35.672Z,4.55
2022-11-18T22:17:04.342Z,4.20
2022-11-18T22:19:33.852Z,3.72
2022-11-18T22:22:02.694Z,2.40
2022-11-18T22:24:30.764Z,2.95
2022-11-18T22:26:59.405Z,2.92
2022-11-18T22:29:27.546Z,3.28
2022-11-18T22:31:55.722Z,3.42
2022-11-18T22:34:24.021Z,3.13
2022-11-18T22:36:53.520Z,3.22
2022-11-18T22:39:22.101Z,3.20
2022-11-18T22:42:08.027Z,3.28
2022-11-18T22:44:36.442Z,2.97
2022-11-18T22:47:04.624Z,2.70
2022-11-18T22:49:32.738Z,3.22
2022-11-18T22:52:02.365Z,2.70
2022-11-18T22:54:38.993Z,3.95
2022-11-18T22:57:08.086Z,3.15
2022-11-18T22:59:36.450Z,3.97
2022-11-18T23:02:04.624Z,3.85
2022-11-18T23:04:32.728Z,3.10
2022-11-18T23:07:02.435Z,3.95
2022-11-18T23:09:30.684Z,3.42
2022-11-18T23:12:15.806Z,3.90
2022-11-18T23:14:44.204Z,3.50
2022-11-18T23:17:12.240Z,3.85
2022-11-18T23:19:43.936Z,3.75
2022-11-18T23:22:14.342Z,3.20
2022-11-18T23:24:42.543Z,3.45
2022-11-18T23:27:10.916Z,3.25
2022-11-18T23:29:39.187Z,3.15
2022-11-18T23:32:07.359Z,4.63
2022-11-18T23:34:35.484Z,3.65
2022-11-18T23:37:03.693Z,3.85
2022-11-18T23:39:33.267Z,3.88
2022-11-18T23:42:01.428Z,3.30
2022-11-18T23:44:43.392Z,4.95
2022-11-18T23:47:11.456Z,4.63
2022-11-18T23:49:39.621Z,3.40
2022-11-18T23:52:07.772Z,3.47
2022-11-18T23:54:37.253Z,3.92
2022-11-18T23:57:06.044Z,3.42
2022-11-18T23:59:34.477Z,3.08
